sensor_id;sensor_type;location;lat;lon;timestamp;temperature;humidity
10433;DHT22;5263;48.680;9.004;2023-02-12T00:01:37;4.70;99.90
10433;DHT22;5263;48.680;9.004;2023-02-12T00:04:03;4.70;99.90
10433;DHT22;5263;48.680;9.004;2023-02-12T00:06:29;4.80;99.90
10433;DHT22;5263;48.680;9.004;2023-02-12T00:08:56;4.70;99.90
10433;DHT22;5263;48.680;9.004;2023-02-12T00:11:24;4.80;99.90
10433;DHT22;5263;48.680;9.004;2023-02-12T00:13:50;4.90;99.90
10433;DHT22;5263;48.680;9.004;2023-02-12T00:16:18;4.70;99.90
10433;DHT22;5263;48.680;9.004;2023-02-12T00:18:45;4.80;99.90
10433;DHT22;5263;48.680;9.004;2023-02-12T00:21:12;4.90;99.90
10433;DHT22;5263;48.680;9.004;2023-02-12T00:23:38;5.00;99.90
10433;DHT22;5263;48.680;9.004;2023-02-12T00:26:10;4.70;99.90
10433;DHT22;5263;48.680;9.004;2023-02-12T00:28:36;4.70;99.90
10433;DHT22;5263;48.680;9.004;2023-02-12T00:31:10;4.80;99.90
10433;DHT22;5263;48.680;9.004;2023-02-12T00:33:36;4.70;99.90
10433;DHT22;5263;48.680;9.004;2023-02-12T00:36:02;4.70;99.90
10433;DHT22;5263;48.680;9.004;2023-02-12T00:38:28;4.70;99.90
10433;DHT22;5263;48.680;9.004;2023-02-12T00:40:53;4.70;99.90
10433;DHT22;5263;48.680;9.004;2023-02-12T00:43:19;4.80;99.90
10433;DHT22;5263;48.680;9.004;2023-02-12T00:45:45;4.80;99.90
10433;DHT22;5263;48.680;9.004;2023-02-12T00:48:11;4.70;99.90
10433;DHT22;5263;48.680;9.004;2023-02-12T00:50:37;4.70;99.90
10433;DHT22;5263;48.680;9.004;2023-02-12T00:53:02;4.60;99.90
10433;DHT22;5263;48.680;9.004;2023-02-12T00:55:28;4.70;99.90
10433;DHT22;5263;48.680;9.004;2023-02-12T00:57:55;4.60;99.90
10433;DHT22;5263;48.680;9.004;2023-02-12T01:00:21;4.60;99.90
10433;DHT22;5263;48.680;9.004;2023-02-12T01:02:46;4.80;99.90
10433;DHT22;5263;48.680;9.004;2023-02-12T01:05:12;4.70;99.90
10433;DHT22;5263;48.680;9.004;2023-02-12T01:07:37;4.70;99.90
10433;DHT22;5263;48.680;9.004;2023-02-12T01:10:06;4.60;99.90
10433;DHT22;5263;48.680;9.004;2023-02-12T01:12:31;4.50;99.90
10433;DHT22;5263;48.680;9.004;2023-02-12T01:14:57;4.50;99.90
10433;DHT22;5263;48.680;9.004;2023-02-12T01:17:23;4.70;99.90
10433;DHT22;5263;48.680;9.004;2023-02-12T01:19:48;4.70;99.90
10433;DHT22;5263;48.680;9.004;2023-02-12T01:22:14;4.90;99.90
10433;DHT22;5263;48.680;9.004;2023-02-12T01:24:40;4.90;99.90
10433;DHT22;5263;48.680;9.004;2023-02-12T01:27:06;4.90;99.90
10433;DHT22;5263;48.680;9.004;2023-02-12T01:29:31;4.70;99.90
10433;DHT22;5263;48.680;9.004;2023-02-12T01:31:57;4.70;99.90
10433;DHT22;5263;48.680;9.004;2023-02-12T01:34:22;4.60;99.90
10433;DHT22;5263;48.680;9.004;2023-02-12T01:36:48;4.50;99.90
10433;DHT22;5263;48.680;9.004;2023-02-12T01:39:13;4.70;99.90
10433;DHT22;5263;48.680;9.004;2023-02-12T01:41:42;4.60;99.90
10433;DHT22;5263;48.680;9.004;2023-02-12T01:46:42;4.50;99.90
10433;DHT22;5263;48.680;9.004;2023-02-12T01:49:13;4.30;99.90
10433;DHT22;5263;48.680;9.004;2023-02-12T01:51:41;4.30;99.90
10433;DHT22;5263;48.680;9.004;2023-02-12T01:54:10;4.40;99.90
10433;DHT22;5263;48.680;9.004;2023-02-12T01:56:36;4.20;99.90
10433;DHT22;5263;48.680;9.004;2023-02-12T01:59:02;4.10;99.90
10433;DHT22;5263;48.680;9.004;2023-02-12T02:01:30;4.20;99.90
10433;DHT22;5263;48.680;9.004;2023-02-12T02:04:01;4.40;99.90
10433;DHT22;5263;48.680;9.004;2023-02-12T02:06:35;4.40;99.90
10433;DHT22;5263;48.680;9.004;2023-02-12T02:09:03;4.50;99.90
10433;DHT22;5263;48.680;9.004;2023-02-12T02:11:29;4.30;99.90
10433;DHT22;5263;48.680;9.004;2023-02-12T02:14:13;4.20;99.90
10433;DHT22;5263;48.680;9.004;2023-02-12T02:20:04;4.10;99.90
10433;DHT22;5263;48.680;9.004;2023-02-12T02:25:30;4.00;99.90
10433;DHT22;5263;48.680;9.004;2023-02-12T02:31:15;3.90;99.90
10433;DHT22;5263;48.680;9.004;2023-02-12T02:39:22;3.80;99.90
10433;DHT22;5263;48.680;9.004;2023-02-12T02:41:58;3.80;99.90
10433;DHT22;5263;48.680;9.004;2023-02-12T02:44:42;3.90;99.90
10433;DHT22;5263;48.680;9.004;2023-02-12T02:47:13;4.10;99.90
10433;DHT22;5263;48.680;9.004;2023-02-12T02:49:44;4.10;99.90
10433;DHT22;5263;48.680;9.004;2023-02-12T02:52:35;4.20;99.90
10433;DHT22;5263;48.680;9.004;2023-02-12T02:55:09;4.20;99.90
10433;DHT22;5263;48.680;9.004;2023-02-12T03:00:19;4.30;99.90
10433;DHT22;5263;48.680;9.004;2023-02-12T03:02:55;4.40;99.90
10433;DHT22;5263;48.680;9.004;2023-02-12T03:05:32;4.40;99.90
10433;DHT22;5263;48.680;9.004;2023-02-12T03:08:08;4.20;99.90
10433;DHT22;5263;48.680;9.004;2023-02-12T03:10:39;4.30;99.90
10433;DHT22;5263;48.680;9.004;2023-02-12T03:13:13;4.10;99.90
10433;DHT22;5263;48.680;9.004;2023-02-12T03:15:48;4.10;99.90
10433;DHT22;5263;48.680;9.004;2023-02-12T03:18:30;4.30;99.90
10433;DHT22;5263;48.680;9.004;2023-02-12T03:21:00;4.20;99.90
10433;DHT22;5263;48.680;9.004;2023-02-12T03:23:34;4.00;99.90
10433;DHT22;5263;48.680;9.004;2023-02-12T03:26:12;4.20;99.90
10433;DHT22;5263;48.680;9.004;2023-02-12T03:28:40;4.40;99.90
10433;DHT22;5263;48.680;9.004;2023-02-12T03:34:10;4.40;99.90
10433;DHT22;5263;48.680;9.004;2023-02-12T03:36:50;4.20;99.90
10433;DHT22;5263;48.680;9.004;2023-02-12T03:50:16;4.40;99.90
10433;DHT22;5263;48.680;9.004;2023-02-12T03:52:42;4.40;99.90
10433;DHT22;5263;48.680;9.004;2023-02-12T03:55:08;4.50;99.90
10433;DHT22;5263;48.680;9.004;2023-02-12T03:57:41;4.10;99.90
10433;DHT22;5263;48.680;9.004;2023-02-12T04:00:14;4.10;99.90
10433;DHT22;5263;48.680;9.004;2023-02-12T04:02:41;4.30;99.90
10433;DHT22;5263;48.680;9.004;2023-02-12T04:05:07;4.20;99.90
10433;DHT22;5263;48.680;9.004;2023-02-12T04:07:35;4.30;99.90
10433;DHT22;5263;48.680;9.004;2023-02-12T04:10:02;4.20;99.90
10433;DHT22;5263;48.680;9.004;2023-02-12T04:12:52;4.10;99.90
10433;DHT22;5263;48.680;9.004;2023-02-12T04:18:25;4.30;99.90
10433;DHT22;5263;48.680;9.004;2023-02-12T04:26:38;4.20;99.90
10433;DHT22;5263;48.680;9.004;2023-02-12T04:29:27;4.00;99.90
10433;DHT22;5263;48.680;9.004;2023-02-12T04:34:56;4.20;99.90
10433;DHT22;5263;48.680;9.004;2023-02-12T04:37:30;4.00;99.90
10433;DHT22;5263;48.680;9.004;2023-02-12T04:39:57;3.90;99.90
10433;DHT22;5263;48.680;9.004;2023-02-12T04:42:24;3.90;99.90
10433;DHT22;5263;48.680;9.004;2023-02-12T04:44:50;4.10;99.90
10433;DHT22;5263;48.680;9.004;2023-02-12T04:47:16;4.10;99.90
10433;DHT22;5263;48.680;9.004;2023-02-12T04:49:42;4.00;99.90
10433;DHT22;5263;48.680;9.004;2023-02-12T04:52:08;4.10;99.90
10433;DHT22;5263;48.680;9.004;2023-02-12T04:54:33;4.10;99.90
10433;DHT22;5263;48.680;9.004;2023-02-12T04:56:59;3.90;99.90
10433;DHT22;5263;48.680;9.004;2023-02-12T04:59:25;4.00;99.90
10433;DHT22;5263;48.680;9.004;2023-02-12T05:01:50;4.00;99.90
10433;DHT22;5263;48.680;9.004;2023-02-12T05:04:17;4.00;99.90
10433;DHT22;5263;48.680;9.004;2023-02-12T05:06:44;4.00;99.90
10433;DHT22;5263;48.680;9.004;2023-02-12T05:09:14;4.10;99.90
10433;DHT22;5263;48.680;9.004;2023-02-12T05:11:40;3.90;99.90
10433;DHT22;5263;48.680;9.004;2023-02-12T05:14:06;4.00;99.90
10433;DHT22;5263;48.680;9.004;2023-02-12T05:16:32;4.10;99.90
10433;DHT22;5263;48.680;9.004;2023-02-12T05:18:57;3.90;99.90
10433;DHT22;5263;48.680;9.004;2023-02-12T05:21:23;4.00;99.90
10433;DHT22;5263;48.680;9.004;2023-02-12T05:23:48;4.10;99.90
10433;DHT22;5263;48.680;9.004;2023-02-12T05:26:17;4.00;99.90
10433;DHT22;5263;48.680;9.004;2023-02-12T05:28:43;4.00;99.90
10433;DHT22;5263;48.680;9.004;2023-02-12T05:31:10;4.00;99.90
10433;DHT22;5263;48.680;9.004;2023-02-12T05:33:37;3.90;99.90
10433;DHT22;5263;48.680;9.004;2023-02-12T05:38:30;4.10;99.90
10433;DHT22;5263;48.680;9.004;2023-02-12T05:41:01;4.20;99.90
10433;DHT22;5263;48.680;9.004;2023-02-12T05:43:27;4.30;99.90
10433;DHT22;5263;48.680;9.004;2023-02-12T05:45:52;4.30;99.90
10433;DHT22;5263;48.680;9.004;2023-02-12T05:48:18;4.10;99.90
10433;DHT22;5263;48.680;9.004;2023-02-12T05:50:43;4.10;99.90
10433;DHT22;5263;48.680;9.004;2023-02-12T05:53:09;4.20;99.90
10433;DHT22;5263;48.680;9.004;2023-02-12T05:55:34;4.00;99.90
10433;DHT22;5263;48.680;9.004;2023-02-12T05:58:00;3.70;99.90
10433;DHT22;5263;48.680;9.004;2023-02-12T06:00:25;4.00;99.90
10433;DHT22;5263;48.680;9.004;2023-02-12T06:02:51;4.10;99.90
10433;DHT22;5263;48.680;9.004;2023-02-12T06:05:17;4.10;99.90
10433;DHT22;5263;48.680;9.004;2023-02-12T06:07:42;4.20;99.90
10433;DHT22;5263;48.680;9.004;2023-02-12T06:10:08;4.30;99.90
10433;DHT22;5263;48.680;9.004;2023-02-12T06:12:34;4.40;99.90
10433;DHT22;5263;48.680;9.004;2023-02-12T06:14:59;4.50;99.90
10433;DHT22;5263;48.680;9.004;2023-02-12T06:17:25;4.40;99.90
10433;DHT22;5263;48.680;9.004;2023-02-12T06:19:51;4.70;99.90
10433;DHT22;5263;48.680;9.004;2023-02-12T06:22:16;4.90;99.90
10433;DHT22;5263;48.680;9.004;2023-02-12T06:24:42;5.00;99.90
10433;DHT22;5263;48.680;9.004;2023-02-12T06:27:07;4.70;99.90
10433;DHT22;5263;48.680;9.004;2023-02-12T06:29:33;4.20;99.90
10433;DHT22;5263;48.680;9.004;2023-02-12T06:31:58;3.90;99.90
10433;DHT22;5263;48.680;9.004;2023-02-12T06:34:24;3.70;99.90
10433;DHT22;5263;48.680;9.004;2023-02-12T06:36:49;3.60;99.90
10433;DHT22;5263;48.680;9.004;2023-02-12T06:39:16;3.50;99.90
10433;DHT22;5263;48.680;9.004;2023-02-12T06:41:42;3.50;99.90
10433;DHT22;5263;48.680;9.004;2023-02-12T06:44:10;3.40;99.90
10433;DHT22;5263;48.680;9.004;2023-02-12T06:46:35;3.30;99.90
10433;DHT22;5263;48.680;9.004;2023-02-12T06:49:01;3.00;99.90
10433;DHT22;5263;48.680;9.004;2023-02-12T06:51:28;3.00;99.90
10433;DHT22;5263;48.680;9.004;2023-02-12T06:53:55;3.00;99.90
10433;DHT22;5263;48.680;9.004;2023-02-12T06:56:22;3.20;99.90
10433;DHT22;5263;48.680;9.004;2023-02-12T06:58:55;3.10;99.90
10433;DHT22;5263;48.680;9.004;2023-02-12T07:01:24;3.10;99.90
10433;DHT22;5263;48.680;9.004;2023-02-12T07:03:57;3.20;99.90
10433;DHT22;5263;48.680;9.004;2023-02-12T07:06:24;3.20;99.90
10433;DHT22;5263;48.680;9.004;2023-02-12T07:08:50;3.20;99.90
10433;DHT22;5263;48.680;9.004;2023-02-12T07:11:16;3.20;99.90
10433;DHT22;5263;48.680;9.004;2023-02-12T07:13:43;3.20;99.90
10433;DHT22;5263;48.680;9.004;2023-02-12T07:16:14;3.20;99.90
10433;DHT22;5263;48.680;9.004;2023-02-12T07:18:41;3.30;99.90
10433;DHT22;5263;48.680;9.004;2023-02-12T07:21:08;3.60;99.90
10433;DHT22;5263;48.680;9.004;2023-02-12T07:23:34;3.50;99.90
10433;DHT22;5263;48.680;9.004;2023-02-12T07:26:03;3.60;99.90
10433;DHT22;5263;48.680;9.004;2023-02-12T07:28:29;3.50;99.90
10433;DHT22;5263;48.680;9.004;2023-02-12T07:30:58;3.30;99.90
10433;DHT22;5263;48.680;9.004;2023-02-12T07:33:24;3.20;99.90
10433;DHT22;5263;48.680;9.004;2023-02-12T07:35:50;3.30;99.90
10433;DHT22;5263;48.680;9.004;2023-02-12T07:38:15;3.50;99.90
10433;DHT22;5263;48.680;9.004;2023-02-12T07:40:41;3.50;99.90
10433;DHT22;5263;48.680;9.004;2023-02-12T07:43:06;3.70;99.90
10433;DHT22;5263;48.680;9.004;2023-02-12T07:45:32;3.90;99.90
10433;DHT22;5263;48.680;9.004;2023-02-12T07:47:58;4.00;99.90
10433;DHT22;5263;48.680;9.004;2023-02-12T07:50:23;4.10;99.90
10433;DHT22;5263;48.680;9.004;2023-02-12T07:52:49;4.10;99.90
10433;DHT22;5263;48.680;9.004;2023-02-12T07:55:15;4.10;99.90
10433;DHT22;5263;48.680;9.004;2023-02-12T07:57:41;4.20;99.90
10433;DHT22;5263;48.680;9.004;2023-02-12T08:00:08;4.30;99.90
10433;DHT22;5263;48.680;9.004;2023-02-12T08:02:34;4.40;99.90
10433;DHT22;5263;48.680;9.004;2023-02-12T08:05:00;4.40;99.90
10433;DHT22;5263;48.680;9.004;2023-02-12T08:07:26;4.60;99.90
10433;DHT22;5263;48.680;9.004;2023-02-12T08:09:51;4.70;99.90
10433;DHT22;5263;48.680;9.004;2023-02-12T08:12:18;4.90;99.90
10433;DHT22;5263;48.680;9.004;2023-02-12T08:14:44;4.90;99.90
10433;DHT22;5263;48.680;9.004;2023-02-12T08:17:10;5.00;99.90
10433;DHT22;5263;48.680;9.004;2023-02-12T08:19:35;4.90;99.90
10433;DHT22;5263;48.680;9.004;2023-02-12T08:22:01;5.00;99.90
10433;DHT22;5263;48.680;9.004;2023-02-12T08:24:28;4.90;99.90
10433;DHT22;5263;48.680;9.004;2023-02-12T08:26:54;5.00;99.90
10433;DHT22;5263;48.680;9.004;2023-02-12T08:29:22;5.10;99.90
10433;DHT22;5263;48.680;9.004;2023-02-12T08:31:49;5.10;99.90
10433;DHT22;5263;48.680;9.004;2023-02-12T08:34:21;5.20;99.90
10433;DHT22;5263;48.680;9.004;2023-02-12T08:36:48;5.30;99.90
10433;DHT22;5263;48.680;9.004;2023-02-12T08:39:15;5.40;99.90
10433;DHT22;5263;48.680;9.004;2023-02-12T08:41:41;5.50;99.90
10433;DHT22;5263;48.680;9.004;2023-02-12T08:44:07;5.50;99.90
10433;DHT22;5263;48.680;9.004;2023-02-12T08:46:36;5.70;99.90
10433;DHT22;5263;48.680;9.004;2023-02-12T08:49:05;5.90;99.90
10433;DHT22;5263;48.680;9.004;2023-02-12T08:51:32;6.10;99.90
10433;DHT22;5263;48.680;9.004;2023-02-12T08:54:02;6.00;99.90
10433;DHT22;5263;48.680;9.004;2023-02-12T08:56:29;6.10;99.90
10433;DHT22;5263;48.680;9.004;2023-02-12T08:58:57;6.00;99.90
10433;DHT22;5263;48.680;9.004;2023-02-12T09:01:25;6.30;99.90
10433;DHT22;5263;48.680;9.004;2023-02-12T09:03:51;6.40;99.90
10433;DHT22;5263;48.680;9.004;2023-02-12T09:06:18;6.50;99.90
10433;DHT22;5263;48.680;9.004;2023-02-12T09:08:44;5.80;99.90
10433;DHT22;5263;48.680;9.004;2023-02-12T09:11:15;5.70;99.90
10433;DHT22;5263;48.680;9.004;2023-02-12T09:13:42;5.70;99.90
10433;DHT22;5263;48.680;9.004;2023-02-12T09:16:09;5.90;99.90
10433;DHT22;5263;48.680;9.004;2023-02-12T09:18:35;6.00;99.90
10433;DHT22;5263;48.680;9.004;2023-02-12T09:21:03;6.10;99.90
10433;DHT22;5263;48.680;9.004;2023-02-12T09:23:30;6.20;99.90
10433;DHT22;5263;48.680;9.004;2023-02-12T09:25:56;6.40;99.90
10433;DHT22;5263;48.680;9.004;2023-02-12T09:28:22;6.40;99.90
10433;DHT22;5263;48.680;9.004;2023-02-12T09:30:47;6.50;99.90
10433;DHT22;5263;48.680;9.004;2023-02-12T09:33:13;6.50;99.90
10433;DHT22;5263;48.680;9.004;2023-02-12T09:35:39;6.60;99.90
10433;DHT22;5263;48.680;9.004;2023-02-12T09:38:06;6.80;99.90
10433;DHT22;5263;48.680;9.004;2023-02-12T09:43:54;7.10;99.90
10433;DHT22;5263;48.680;9.004;2023-02-12T09:51:18;7.10;99.90
10433;DHT22;5263;48.680;9.004;2023-02-12T09:53:45;7.00;99.90
10433;DHT22;5263;48.680;9.004;2023-02-12T09:56:17;7.10;99.90
10433;DHT22;5263;48.680;9.004;2023-02-12T09:58:58;7.10;99.90
10433;DHT22;5263;48.680;9.004;2023-02-12T10:01:26;7.40;99.90
10433;DHT22;5263;48.680;9.004;2023-02-12T10:03:53;7.30;99.90
10433;DHT22;5263;48.680;9.004;2023-02-12T10:06:21;7.10;99.90
10433;DHT22;5263;48.680;9.004;2023-02-12T10:09:19;7.20;99.90
10433;DHT22;5263;48.680;9.004;2023-02-12T10:11:56;7.20;99.90
10433;DHT22;5263;48.680;9.004;2023-02-12T10:19:57;7.30;99.90
10433;DHT22;5263;48.680;9.004;2023-02-12T10:28:00;7.20;99.90
10433;DHT22;5263;48.680;9.004;2023-02-12T10:33:08;7.50;99.90
10433;DHT22;5263;48.680;9.004;2023-02-12T10:35:35;7.70;99.90
10433;DHT22;5263;48.680;9.004;2023-02-12T10:38:31;7.40;99.90
10433;DHT22;5263;48.680;9.004;2023-02-12T10:40:59;7.60;99.90
10433;DHT22;5263;48.680;9.004;2023-02-12T10:43:27;7.70;99.90
10433;DHT22;5263;48.680;9.004;2023-02-12T10:45:53;8.10;99.90
10433;DHT22;5263;48.680;9.004;2023-02-12T10:48:24;8.00;99.90
10433;DHT22;5263;48.680;9.004;2023-02-12T10:53:39;8.00;99.90
10433;DHT22;5263;48.680;9.004;2023-02-12T11:01:32;7.50;99.90
10433;DHT22;5263;48.680;9.004;2023-02-12T11:04:00;7.90;99.90
10433;DHT22;5263;48.680;9.004;2023-02-12T11:07:05;8.10;99.90
10433;DHT22;5263;48.680;9.004;2023-02-12T11:09:39;8.30;99.90
10433;DHT22;5263;48.680;9.004;2023-02-12T11:12:41;8.60;99.90
10433;DHT22;5263;48.680;9.004;2023-02-12T11:15:21;8.80;99.90
10433;DHT22;5263;48.680;9.004;2023-02-12T11:17:57;8.20;99.90
10433;DHT22;5263;48.680;9.004;2023-02-12T11:20:29;8.50;99.90
10433;DHT22;5263;48.680;9.004;2023-02-12T11:22:59;7.90;99.90
10433;DHT22;5263;48.680;9.004;2023-02-12T11:25:30;7.80;99.90
10433;DHT22;5263;48.680;9.004;2023-02-12T11:30:28;8.50;99.90
10433;DHT22;5263;48.680;9.004;2023-02-12T11:32:54;7.90;99.90
10433;DHT22;5263;48.680;9.004;2023-02-12T11:35:24;8.00;99.90
10433;DHT22;5263;48.680;9.004;2023-02-12T11:37:57;8.40;99.90
10433;DHT22;5263;48.680;9.004;2023-02-12T11:40:27;8.50;99.90
10433;DHT22;5263;48.680;9.004;2023-02-12T11:43:05;8.10;99.90
10433;DHT22;5263;48.680;9.004;2023-02-12T11:45:47;7.90;99.90
10433;DHT22;5263;48.680;9.004;2023-02-12T11:48:21;8.00;99.90
10433;DHT22;5263;48.680;9.004;2023-02-12T11:50:50;7.80;99.90
10433;DHT22;5263;48.680;9.004;2023-02-12T11:53:39;8.00;99.90
10433;DHT22;5263;48.680;9.004;2023-02-12T11:56:10;8.20;99.90
10433;DHT22;5263;48.680;9.004;2023-02-12T11:58:37;8.40;99.90
10433;DHT22;5263;48.680;9.004;2023-02-12T12:03:38;8.20;99.90
10433;DHT22;5263;48.680;9.004;2023-02-12T12:12:15;8.10;99.90
10433;DHT22;5263;48.680;9.004;2023-02-12T12:17:43;8.00;99.90
10433;DHT22;5263;48.680;9.004;2023-02-12T12:20:55;8.20;99.90
10433;DHT22;5263;48.680;9.004;2023-02-12T12:23:33;8.20;99.90
10433;DHT22;5263;48.680;9.004;2023-02-12T12:26:05;7.90;99.90
10433;DHT22;5263;48.680;9.004;2023-02-12T12:28:50;7.90;99.90
10433;DHT22;5263;48.680;9.004;2023-02-12T12:31:37;7.80;99.90
10433;DHT22;5263;48.680;9.004;2023-02-12T12:37:05;8.10;99.90
10433;DHT22;5263;48.680;9.004;2023-02-12T12:40:19;7.90;99.90
10433;DHT22;5263;48.680;9.004;2023-02-12T12:54:09;8.20;99.90
10433;DHT22;5263;48.680;9.004;2023-02-12T13:05:41;8.70;99.90
10433;DHT22;5263;48.680;9.004;2023-02-12T13:11:27;8.00;99.90
10433;DHT22;5263;48.680;9.004;2023-02-12T13:16:50;8.10;99.90
10433;DHT22;5263;48.680;9.004;2023-02-12T13:19:37;8.60;99.90
10433;DHT22;5263;48.680;9.004;2023-02-12T13:22:14;8.60;99.90
10433;DHT22;5263;48.680;9.004;2023-02-12T13:25:17;8.30;99.90
10433;DHT22;5263;48.680;9.004;2023-02-12T13:27:41;8.60;99.90
10433;DHT22;5263;48.680;9.004;2023-02-12T13:32:46;9.70;99.90
10433;DHT22;5263;48.680;9.004;2023-02-12T13:35:22;9.60;99.90
10433;DHT22;5263;48.680;9.004;2023-02-12T13:37:52;9.60;99.90
10433;DHT22;5263;48.680;9.004;2023-02-12T13:40:21;9.40;99.90
10433;DHT22;5263;48.680;9.004;2023-02-12T13:43:06;9.70;99.90
10433;DHT22;5263;48.680;9.004;2023-02-12T13:45:58;9.30;99.90
10433;DHT22;5263;48.680;9.004;2023-02-12T13:51:06;9.60;99.90
10433;DHT22;5263;48.680;9.004;2023-02-12T13:53:59;10.20;99.90
10433;DHT22;5263;48.680;9.004;2023-02-12T13:56:42;11.30;99.90
10433;DHT22;5263;48.680;9.004;2023-02-12T14:04:45;13.40;99.90
10433;DHT22;5263;48.680;9.004;2023-02-12T14:07:13;14.20;99.90
10433;DHT22;5263;48.680;9.004;2023-02-12T14:10:06;14.10;99.90
10433;DHT22;5263;48.680;9.004;2023-02-12T14:12:34;14.60;99.90
10433;DHT22;5263;48.680;9.004;2023-02-12T14:18:04;15.20;99.90
10433;DHT22;5263;48.680;9.004;2023-02-12T14:25:54;14.60;99.90
10433;DHT22;5263;48.680;9.004;2023-02-12T14:28:25;15.30;99.90
10433;DHT22;5263;48.680;9.004;2023-02-12T14:33:46;15.30;99.90
10433;DHT22;5263;48.680;9.004;2023-02-12T14:39:07;14.30;99.90
10433;DHT22;5263;48.680;9.004;2023-02-12T14:41:54;12.50;99.90
10433;DHT22;5263;48.680;9.004;2023-02-12T14:47:03;13.30;99.90
10433;DHT22;5263;48.680;9.004;2023-02-12T14:49:38;12.90;99.90
10433;DHT22;5263;48.680;9.004;2023-02-12T14:54:42;12.00;99.90
10433;DHT22;5263;48.680;9.004;2023-02-12T15:02:44;11.20;99.90
10433;DHT22;5263;48.680;9.004;2023-02-12T15:05:40;10.80;99.90
10433;DHT22;5263;48.680;9.004;2023-02-12T15:09:01;11.10;99.90
10433;DHT22;5263;48.680;9.004;2023-02-12T15:11:41;11.00;99.90
10433;DHT22;5263;48.680;9.004;2023-02-12T15:16:55;11.50;99.90
10433;DHT22;5263;48.680;9.004;2023-02-12T15:19:30;11.50;99.90
10433;DHT22;5263;48.680;9.004;2023-02-12T15:21:58;12.10;99.90
10433;DHT22;5263;48.680;9.004;2023-02-12T15:24:25;12.40;99.90
10433;DHT22;5263;48.680;9.004;2023-02-12T15:26:58;12.20;99.90
10433;DHT22;5263;48.680;9.004;2023-02-12T15:29:31;12.10;99.90
10433;DHT22;5263;48.680;9.004;2023-02-12T15:32:01;11.90;99.90
10433;DHT22;5263;48.680;9.004;2023-02-12T15:34:31;11.70;99.90
10433;DHT22;5263;48.680;9.004;2023-02-12T15:37:00;11.70;99.90
10433;DHT22;5263;48.680;9.004;2023-02-12T15:39:26;11.90;99.90
10433;DHT22;5263;48.680;9.004;2023-02-12T15:41:53;11.60;99.90
10433;DHT22;5263;48.680;9.004;2023-02-12T15:44:37;11.80;99.90
10433;DHT22;5263;48.680;9.004;2023-02-12T15:47:11;11.60;99.90
10433;DHT22;5263;48.680;9.004;2023-02-12T15:49:38;12.20;99.90
10433;DHT22;5263;48.680;9.004;2023-02-12T15:54:33;12.50;99.90
10433;DHT22;5263;48.680;9.004;2023-02-12T15:56:59;12.20;99.90
10433;DHT22;5263;48.680;9.004;2023-02-12T15:59:26;12.00;99.90
10433;DHT22;5263;48.680;9.004;2023-02-12T16:02:01;11.90;99.90
10433;DHT22;5263;48.680;9.004;2023-02-12T16:04:33;11.20;99.90
10433;DHT22;5263;48.680;9.004;2023-02-12T16:07:01;10.90;99.90
10433;DHT22;5263;48.680;9.004;2023-02-12T16:09:32;11.00;99.90
10433;DHT22;5263;48.680;9.004;2023-02-12T16:12:00;11.10;99.90
10433;DHT22;5263;48.680;9.004;2023-02-12T16:16:54;10.40;99.90
10433;DHT22;5263;48.680;9.004;2023-02-12T16:19:29;10.00;99.90
10433;DHT22;5263;48.680;9.004;2023-02-12T16:21:58;9.70;99.90
10433;DHT22;5263;48.680;9.004;2023-02-12T16:24:34;9.50;99.90
10433;DHT22;5263;48.680;9.004;2023-02-12T16:27:08;8.70;99.90
10433;DHT22;5263;48.680;9.004;2023-02-12T16:29:52;8.30;99.90
10433;DHT22;5263;48.680;9.004;2023-02-12T16:32:36;7.70;99.90
10433;DHT22;5263;48.680;9.004;2023-02-12T16:48:11;7.30;99.90
10433;DHT22;5263;48.680;9.004;2023-02-12T16:50:51;7.10;99.90
10433;DHT22;5263;48.680;9.004;2023-02-12T16:55:55;6.90;99.90
10433;DHT22;5263;48.680;9.004;2023-02-12T16:58:20;6.90;99.90
10433;DHT22;5263;48.680;9.004;2023-02-12T17:00:47;6.80;99.90
10433;DHT22;5263;48.680;9.004;2023-02-12T17:03:14;6.70;99.90
10433;DHT22;5263;48.680;9.004;2023-02-12T17:05:40;6.50;99.90
10433;DHT22;5263;48.680;9.004;2023-02-12T17:08:16;6.50;99.90
10433;DHT22;5263;48.680;9.004;2023-02-12T17:10:41;6.30;99.90
10433;DHT22;5263;48.680;9.004;2023-02-12T17:13:09;6.20;99.90
10433;DHT22;5263;48.680;9.004;2023-02-12T17:15:40;6.20;99.90
10433;DHT22;5263;48.680;9.004;2023-02-12T17:18:08;6.00;99.90
10433;DHT22;5263;48.680;9.004;2023-02-12T17:20:36;5.90;99.90
10433;DHT22;5263;48.680;9.004;2023-02-12T17:23:02;5.70;99.90
10433;DHT22;5263;48.680;9.004;2023-02-12T17:25:29;5.70;99.90
10433;DHT22;5263;48.680;9.004;2023-02-12T17:27:55;5.60;99.90
10433;DHT22;5263;48.680;9.004;2023-02-12T17:30:21;5.60;99.90
10433;DHT22;5263;48.680;9.004;2023-02-12T17:32:48;5.60;99.90
10433;DHT22;5263;48.680;9.004;2023-02-12T17:35:14;5.50;99.90
10433;DHT22;5263;48.680;9.004;2023-02-12T17:37:40;5.50;99.90
10433;DHT22;5263;48.680;9.004;2023-02-12T17:40:07;5.20;99.90
10433;DHT22;5263;48.680;9.004;2023-02-12T17:42:33;5.10;99.90
10433;DHT22;5263;48.680;9.004;2023-02-12T17:44:58;5.10;99.90
10433;DHT22;5263;48.680;9.004;2023-02-12T17:47:24;5.00;99.90
10433;DHT22;5263;48.680;9.004;2023-02-12T17:49:49;5.00;99.90
10433;DHT22;5263;48.680;9.004;2023-02-12T17:52:15;5.00;99.90
10433;DHT22;5263;48.680;9.004;2023-02-12T17:54:44;4.90;99.90
10433;DHT22;5263;48.680;9.004;2023-02-12T17:57:10;4.70;99.90
10433;DHT22;5263;48.680;9.004;2023-02-12T17:59:37;4.70;99.90
10433;DHT22;5263;48.680;9.004;2023-02-12T18:02:03;4.60;99.90
10433;DHT22;5263;48.680;9.004;2023-02-12T18:04:30;4.70;99.90
10433;DHT22;5263;48.680;9.004;2023-02-12T18:07:00;4.70;99.90
10433;DHT22;5263;48.680;9.004;2023-02-12T18:09:26;4.70;99.90
10433;DHT22;5263;48.680;9.004;2023-02-12T18:11:52;4.60;99.90
10433;DHT22;5263;48.680;9.004;2023-02-12T18:14:18;4.50;99.90
10433;DHT22;5263;48.680;9.004;2023-02-12T18:16:43;4.40;99.90
10433;DHT22;5263;48.680;9.004;2023-02-12T18:19:09;4.40;99.90
10433;DHT22;5263;48.680;9.004;2023-02-12T18:21:34;4.50;99.90
10433;DHT22;5263;48.680;9.004;2023-02-12T18:24:00;4.40;99.90
10433;DHT22;5263;48.680;9.004;2023-02-12T18:26:26;4.50;99.90
10433;DHT22;5263;48.680;9.004;2023-02-12T18:28:52;4.40;99.90
10433;DHT22;5263;48.680;9.004;2023-02-12T18:31:19;4.10;99.90
10433;DHT22;5263;48.680;9.004;2023-02-12T18:33:45;4.00;99.90
10433;DHT22;5263;48.680;9.004;2023-02-12T18:36:14;3.60;99.90
10433;DHT22;5263;48.680;9.004;2023-02-12T18:38:40;3.70;99.90
10433;DHT22;5263;48.680;9.004;2023-02-12T18:41:08;3.60;99.90
10433;DHT22;5263;48.680;9.004;2023-02-12T18:43:34;3.30;99.90
10433;DHT22;5263;48.680;9.004;2023-02-12T18:46:05;3.20;99.90
10433;DHT22;5263;48.680;9.004;2023-02-12T18:48:31;3.10;99.90
10433;DHT22;5263;48.680;9.004;2023-02-12T18:51:03;3.00;99.90
10433;DHT22;5263;48.680;9.004;2023-02-12T18:53:29;3.10;99.90
10433;DHT22;5263;48.680;9.004;2023-02-12T18:55:55;3.10;99.90
10433;DHT22;5263;48.680;9.004;2023-02-12T18:58:21;3.00;99.90
10433;DHT22;5263;48.680;9.004;2023-02-12T19:00:46;3.00;99.90
10433;DHT22;5263;48.680;9.004;2023-02-12T19:03:12;2.70;99.90
10433;DHT22;5263;48.680;9.004;2023-02-12T19:05:38;2.80;99.90
10433;DHT22;5263;48.680;9.004;2023-02-12T19:08:04;2.80;99.90
10433;DHT22;5263;48.680;9.004;2023-02-12T19:10:29;2.70;99.90
10433;DHT22;5263;48.680;9.004;2023-02-12T19:12:55;2.80;99.90
10433;DHT22;5263;48.680;9.004;2023-02-12T19:15:22;2.50;99.90
10433;DHT22;5263;48.680;9.004;2023-02-12T19:17:48;2.40;99.90